Flight Track Log - Related Links

Times and Time Zones

All times are in EDT time to prevent confusion due to time zone crossing. See the UAL4476 flight status page for this flight to view local times or setup timezone preferences in your user account.

Time Position Orientation Groundspeed Altitude Reporting Facility
EDT Latitude Longitude Course Direction KTS MPH feet Rate Location/Type
Mon 09:36:10 AM 41.3942 -81.8869 273° West 169 194 1,700  Level Cleveland Center
Mon 09:37:15 AM 41.3967 -81.9533 273° West 181 208 3,200 1,689 Climbing Cleveland Center
Mon 09:37:53 AM 41.4044 -82.0225 279° West 255 293 4,600 1,935 Climbing Cleveland Center
Mon 09:38:17 AM 41.4178 -82.0342 327° Northwest 242 278 5,200 1,814 Climbing Cleveland Center
Mon 09:39:19 AM 41.4847 -81.9931 25° Northeast 278 320 7,200 2,129 Climbing Cleveland Center
Mon 09:40:21 AM 41.5483 -81.8919 50° Northeast 298 343 9,600 1,597 Climbing Cleveland Center
Mon 09:41:23 AM 41.6069 -81.7967 51° Northeast 325 374 10,500 919 Climbing Cleveland Center
Mon 09:42:25 AM 41.6733 -81.6894 50° Northeast 361 415 11,500 1,016 Climbing Cleveland Center
Mon 09:43:27 AM 41.7422 -81.5764 51° Northeast 381 438 12,600 1,210 Climbing Cleveland Center
Mon 09:44:29 AM 41.7986 -81.4489 59° Northeast 399 459 14,000 1,210 Climbing Cleveland Center
Mon 09:45:31 AM 41.8517 -81.3178 61° Northeast 398 458 15,100 1,016 Climbing Cleveland Center
Mon 09:46:33 AM 41.9067 -81.1839 61° Northeast 401 461 16,100 919 Climbing Cleveland Center
Mon 09:47:35 AM 41.9614 -81.0492 61° Northeast 406 467 17,000 871 Climbing Cleveland Center
Mon 09:48:37 AM 42.0183 -80.9122 61° Northeast 413 475 17,900 968 Climbing Cleveland Center
Mon 09:49:39 AM 42.0847 -80.7506 61° Northeast 418 481 19,000 968 Climbing Cleveland Center
Mon 09:50:41 AM 42.1272 -80.6033 69° East 420 483 19,900 871 Climbing Cleveland Center
Mon 09:51:43 AM 42.1442 -80.4403 82° East 431 496 20,800 871 Climbing Cleveland Center
Mon 09:52:45 AM 42.1614 -80.2800 82° East 431 496 21,700 871 Climbing Cleveland Center
Mon 09:53:47 AM 42.1775 -80.1142 82° East 438 504 22,600 878 Climbing Cleveland Center
Mon 09:54:48 AM 42.1942 -79.9436 82° East 442 509 23,500 878 Climbing Cleveland Center
Mon 09:55:50 AM 42.2092 -79.7806 83° East 441 507 24,400 871 Climbing Cleveland Center
Mon 09:56:52 AM 42.2253 -79.6175 82° East 441 507 25,300 871 Climbing Cleveland Center
Mon 09:57:54 AM 42.2400 -79.4528 83° East 444 511 26,200 968 Climbing Cleveland Center
Mon 09:58:56 AM 42.2589 -79.2522 83° East 448 516 27,300 919 Climbing Cleveland Center
Mon 09:59:58 AM 42.2739 -79.0842 83° East 454 522 28,100 823 Climbing Cleveland Center
Mon 10:01:00 AM 42.2892 -78.9144 83° East 456 525 29,000 774 Climbing Cleveland Center
Mon 10:02:02 AM 42.3031 -78.7503 83° East 456 525 29,700 823 Climbing Cleveland Center
Mon 10:03:04 AM 42.3206 -78.5447 83° East 458 527 30,700 871 Climbing Cleveland Center
Mon 10:04:06 AM 42.3356 -78.3722 83° East 460 529 31,500 726 Climbing Cleveland Center
Mon 10:05:08 AM 42.3503 -78.1997 83° East 461 531 32,200 683 Climbing Cleveland Center
Mon 10:06:09 AM 42.3633 -78.0278 84° East 463 533 32,900 774 Climbing Cleveland Center
Mon 10:07:12 AM 42.3767 -77.8542 84° East 464 534 33,800 871 Climbing Cleveland Center
Mon 10:08:13 AM 42.3897 -77.6833 84° East 465 535 34,700 585 Climbing Cleveland Center
Mon 10:09:15 AM 42.4053 -77.4783 84° East 465 535 35,000 145 Climbing Cleveland Center
Mon 10:10:17 AM 42.4194 -77.2986 84° East 482 555 35,000  Level Cleveland Center
Mon 10:11:20 AM 42.4331 -77.1108 84° East 500 575 35,000  Level Cleveland Center
Mon 10:12:22 AM 42.4497 -76.9181 83° East 516 594 35,000  Level Cleveland Center
Mon 10:13:24 AM 42.4761 -76.6864 81° East 520 598 35,000  Level Cleveland Center
Mon 10:14:04 AM 42.4883 -76.5697 82° East 521 600 35,000  Level Boston Center
Mon 10:15:07 AM 42.5089 -76.3767 82° East 521 600 35,000  Level Boston Center
Mon 10:16:08 AM 42.5275 -76.1950 82° East 521 600 35,000  Level Boston Center
Mon 10:17:11 AM 42.5514 -75.9631 82° East 520 598 35,000  Level Boston Center
Mon 10:18:12 AM 42.5719 -75.7608 82° East 518 596 35,000  Level Boston Center
Mon 10:19:13 AM 42.5914 -75.5689 82° East 518 596 35,000  Level Boston Center
Mon 10:20:16 AM 42.6025 -75.3853 85° East 514 592 35,000  Level Boston Center
Mon 10:21:17 AM 42.6019 -75.1903 90° East 513 590 35,000  Level Boston Center
Mon 10:22:18 AM 42.6006 -74.9703 90° East 514 592 35,000  Level Boston Center
Mon 10:23:21 AM 42.5994 -74.7761 90° East 517 595 35,000  Level Boston Center
Mon 10:24:23 AM 42.5975 -74.5783 91° East 519 597 35,000  Level Boston Center
Mon 10:25:23 AM 42.5953 -74.3828 91° East 522 601 35,000  Level Boston Center
Mon 10:26:24 AM 42.5939 -74.1864 90° East 522 601 35,000  Level Boston Center
Mon 10:27:27 AM 42.5903 -73.9894 91° East 522 601 35,000  Level Boston Center
Mon 10:28:28 AM 42.5869 -73.7914 91° East 522 601 35,000  Level Boston Center
Mon 10:29:29 AM 42.5839 -73.5947 91° East 522 601 35,000  Level Boston Center
Mon 10:30:30 AM 42.5792 -73.3592 91° East 522 601 35,000 -48 Level Boston Center
Mon 10:31:34 AM 42.5758 -73.1631 91° East 520 598 34,900 -1,152 Descending Boston Center
Mon 10:32:35 AM 42.5717 -72.9883 92° East 518 596 32,600 -2,557 Descending Boston Center
Mon 10:33:36 AM 42.5667 -72.7961 92° East 514 592 29,700 -2,951 Descending Boston Center
Mon 10:34:37 AM 42.5606 -72.5700 92° East 504 580 26,600 -3,048 Descending Boston Center
Mon 10:35:40 AM 42.5558 -72.3864 92° East 492 566 23,400 -3,194 Descending Boston Center
Mon 10:36:41 AM 42.5503 -72.2117 92° East 484 557 20,000 -3,344 Descending Boston Center
Mon 10:37:42 AM 42.5422 -72.0281 93° East 441 507 16,600 -3,072 Descending Boston Center
Mon 10:38:46 AM 42.5278 -71.8681 97° East 433 498 13,600 -2,565 Descending Boston Center
Mon 10:39:46 AM 42.5131 -71.7036 97° East 414 476 11,300 -1,636 Descending Boston Center
Mon 10:40:47 AM 42.5003 -71.5667 97° East 372 428 10,300 -1,008 Descending Boston Center
Mon 10:41:51 AM 42.4883 -71.4400 97° East 319 367 9,200 -1,065 Descending Boston Center
Mon 10:42:51 AM 42.4531 -71.3428 116° Southeast 292 336 8,100 -942 Descending Boston Center
Mon 10:43:52 AM 42.3992 -71.2783 139° Southeast 260 299 7,300 -885 Descending Boston Center
Mon 10:44:53 AM 42.3850 -71.1897 102° East 260 299 6,300 -624 Descending Boston Center
Mon 10:45:57 AM 42.4072 -71.1019 71° East 251 289 6,000 -144 Descending Boston Center
Mon 10:46:58 AM 42.4750 -71.0692 20° North 242 278 6,000 -397 Level Boston Center
Mon 10:47:58 AM 42.5408 -71.0439 16° North 243 280 5,200 -488 Descending Boston Center
Mon 10:49:01 AM 42.6036 -71.0175 17° North 237 273 5,000 -144 Descending Boston Center
Mon 10:50:03 AM 42.6442 -70.9700 41° Northeast 207 238 4,900 -492 Descending Boston Center
Mon 10:51:03 AM 42.6344 -70.9067 102° East 199 229 4,000 -435 Descending Boston Center
Mon 10:52:07 AM 42.5844 -70.8981 173° South 182 209 4,000 -339 Level Boston Center
Mon 10:53:07 AM 42.5333 -70.9236 200° South 179 206 3,300 -800 Descending Boston Center
Mon 10:54:07 AM 42.4861 -70.9467 200° South 180 207 2,400 -864 Descending Boston Center
Mon 10:55:12 AM 42.4417 -70.9681 200° South 174 200 1,500 -810 Descending Boston Center
Mon 10:56:13 AM 42.4022 -70.9861 199° South 146 168 700 -496 Descending Boston Center
Mon 10:57:13 AM 42.3703 -71.0036 202° Southwest 144 166 500 -200 Descending Boston Center
Mon 10:59:00 AM 42.3630 -71.0064 358° North  Level Estimated

Login

Don't have an account? Register now (free) for customized features, flight alerts, and more!